SARI

Cataratas Del Iguazú International Airport

Airport
ICAO code
SARI
IATA Code
IGR
Summary
ICAO Region
CARSAM
ICAO Territory
Location

Puerto Iguazu, Misiones

Serving
Iguazu Falls
Elevation
916 ft
Coordinates
25° 44' 14" S , 54° 28' 24" W
KCC
Metar
SARI 251400Z 15004KT 110V190 9999 FEW010 BKN100 17/16 Q1018

Airport serving city of Puerto Iguazu, Misiones province, Argentina.

Climatology

Humid, sub-tropical climate (Köppen climate classification Cfa).

Runways

Designator Length Width Surface Rops
13/31 3300 45 ASP Yes/Yes

Airport map

Aerial View

SKYbrary Partners:

Safety knowledge contributed by: